sensor_id;sensor_type;location;lat;lon;timestamp;P1;durP1;ratioP1;P2;durP2;ratioP2
36001;SDS011;22070;50.922;5.430;2023-03-01T00:02:19;8.90;;;5.60;;
36001;SDS011;22070;50.922;5.430;2023-03-01T00:04:44;10.30;;;6.18;;
36001;SDS011;22070;50.922;5.430;2023-03-01T00:07:11;8.40;;;5.75;;
36001;SDS011;22070;50.922;5.430;2023-03-01T00:09:36;11.57;;;5.90;;
36001;SDS011;22070;50.922;5.430;2023-03-01T00:12:02;9.53;;;5.90;;
36001;SDS011;22070;50.922;5.430;2023-03-01T00:14:28;9.73;;;5.43;;
36001;SDS011;22070;50.922;5.430;2023-03-01T00:16:54;9.83;;;5.90;;
36001;SDS011;22070;50.922;5.430;2023-03-01T00:19:20;11.30;;;5.72;;
36001;SDS011;22070;50.922;5.430;2023-03-01T00:21:47;9.55;;;6.20;;
36001;SDS011;22070;50.922;5.430;2023-03-01T00:24:12;9.98;;;5.75;;
36001;SDS011;22070;50.922;5.430;2023-03-01T00:26:39;10.68;;;6.13;;
36001;SDS011;22070;50.922;5.430;2023-03-01T00:29:05;10.10;;;6.13;;
36001;SDS011;22070;50.922;5.430;2023-03-01T00:31:31;13.73;;;6.63;;
36001;SDS011;22070;50.922;5.430;2023-03-01T00:33:59;11.77;;;6.28;;
36001;SDS011;22070;50.922;5.430;2023-03-01T00:36:27;12.35;;;6.25;;
36001;SDS011;22070;50.922;5.430;2023-03-01T00:38:54;11.15;;;6.28;;
36001;SDS011;22070;50.922;5.430;2023-03-01T00:41:20;9.07;;;5.10;;
36001;SDS011;22070;50.922;5.430;2023-03-01T00:43:47;11.57;;;6.30;;
36001;SDS011;22070;50.922;5.430;2023-03-01T00:46:16;12.35;;;6.20;;
36001;SDS011;22070;50.922;5.430;2023-03-01T00:48:42;13.73;;;6.00;;
36001;SDS011;22070;50.922;5.430;2023-03-01T00:51:10;10.57;;;6.05;;
36001;SDS011;22070;50.922;5.430;2023-03-01T00:53:44;9.82;;;6.30;;
36001;SDS011;22070;50.922;5.430;2023-03-01T00:56:11;10.98;;;5.93;;
36001;SDS011;22070;50.922;5.430;2023-03-01T00:58:38;9.13;;;6.05;;
36001;SDS011;22070;50.922;5.430;2023-03-01T01:01:08;10.27;;;5.75;;
36001;SDS011;22070;50.922;5.430;2023-03-01T01:03:55;10.60;;;6.38;;
36001;SDS011;22070;50.922;5.430;2023-03-01T01:06:27;11.32;;;5.95;;
36001;SDS011;22070;50.922;5.430;2023-03-01T01:08:55;11.70;;;6.60;;
36001;SDS011;22070;50.922;5.430;2023-03-01T01:11:22;9.23;;;5.88;;
36001;SDS011;22070;50.922;5.430;2023-03-01T01:13:49;9.50;;;5.88;;
36001;SDS011;22070;50.922;5.430;2023-03-01T01:16:16;13.25;;;6.82;;
36001;SDS011;22070;50.922;5.430;2023-03-01T01:18:44;12.77;;;6.30;;
36001;SDS011;22070;50.922;5.430;2023-03-01T01:21:11;8.63;;;5.82;;
36001;SDS011;22070;50.922;5.430;2023-03-01T01:23:39;11.60;;;5.88;;
36001;SDS011;22070;50.922;5.430;2023-03-01T01:26:06;13.18;;;7.00;;
36001;SDS011;22070;50.922;5.430;2023-03-01T01:28:37;10.38;;;6.18;;
36001;SDS011;22070;50.922;5.430;2023-03-01T01:31:03;9.75;;;6.03;;
36001;SDS011;22070;50.922;5.430;2023-03-01T01:33:29;9.13;;;6.30;;
36001;SDS011;22070;50.922;5.430;2023-03-01T01:35:55;12.20;;;6.30;;
36001;SDS011;22070;50.922;5.430;2023-03-01T01:38:21;11.05;;;6.43;;
36001;SDS011;22070;50.922;5.430;2023-03-01T01:40:48;10.77;;;6.32;;
36001;SDS011;22070;50.922;5.430;2023-03-01T01:43:28;10.85;;;6.07;;
36001;SDS011;22070;50.922;5.430;2023-03-01T01:45:59;13.20;;;6.28;;
36001;SDS011;22070;50.922;5.430;2023-03-01T01:48:32;11.20;;;6.68;;
36001;SDS011;22070;50.922;5.430;2023-03-01T01:51:05;10.85;;;6.80;;
36001;SDS011;22070;50.922;5.430;2023-03-01T01:53:34;13.30;;;6.63;;
36001;SDS011;22070;50.922;5.430;2023-03-01T01:56:02;11.98;;;6.68;;
36001;SDS011;22070;50.922;5.430;2023-03-01T01:58:31;11.00;;;6.40;;
36001;SDS011;22070;50.922;5.430;2023-03-01T02:00:57;11.98;;;6.75;;
36001;SDS011;22070;50.922;5.430;2023-03-01T02:03:27;9.57;;;5.80;;
36001;SDS011;22070;50.922;5.430;2023-03-01T02:06:06;10.57;;;6.32;;
36001;SDS011;22070;50.922;5.430;2023-03-01T02:08:59;9.93;;;6.13;;
36001;SDS011;22070;50.922;5.430;2023-03-01T02:11:27;11.35;;;6.45;;
36001;SDS011;22070;50.922;5.430;2023-03-01T02:13:55;12.30;;;6.93;;
36001;SDS011;22070;50.922;5.430;2023-03-01T02:16:20;11.30;;;6.55;;
36001;SDS011;22070;50.922;5.430;2023-03-01T02:18:46;13.75;;;6.93;;
36001;SDS011;22070;50.922;5.430;2023-03-01T02:23:50;9.52;;;6.80;;
36001;SDS011;22070;50.922;5.430;2023-03-01T02:26:29;15.77;;;7.03;;
36001;SDS011;22070;50.922;5.430;2023-03-01T02:29:19;13.52;;;6.82;;
36001;SDS011;22070;50.922;5.430;2023-03-01T02:31:46;10.25;;;6.78;;
36001;SDS011;22070;50.922;5.430;2023-03-01T02:34:17;9.82;;;6.88;;
36001;SDS011;22070;50.922;5.430;2023-03-01T02:36:48;12.25;;;7.07;;
36001;SDS011;22070;50.922;5.430;2023-03-01T02:39:18;12.65;;;6.40;;
36001;SDS011;22070;50.922;5.430;2023-03-01T02:41:50;11.00;;;6.45;;
36001;SDS011;22070;50.922;5.430;2023-03-01T02:44:18;10.07;;;6.95;;
36001;SDS011;22070;50.922;5.430;2023-03-01T02:46:46;11.75;;;6.30;;
36001;SDS011;22070;50.922;5.430;2023-03-01T02:49:27;13.45;;;6.82;;
36001;SDS011;22070;50.922;5.430;2023-03-01T02:54:44;11.75;;;6.90;;
36001;SDS011;22070;50.922;5.430;2023-03-01T02:57:12;11.30;;;6.97;;
36001;SDS011;22070;50.922;5.430;2023-03-01T02:59:38;13.05;;;7.30;;
36001;SDS011;22070;50.922;5.430;2023-03-01T03:02:22;13.88;;;7.28;;
36001;SDS011;22070;50.922;5.430;2023-03-01T03:05:14;13.75;;;7.95;;
36001;SDS011;22070;50.922;5.430;2023-03-01T03:07:45;12.45;;;7.57;;
36001;SDS011;22070;50.922;5.430;2023-03-01T03:10:17;16.70;;;7.43;;
36001;SDS011;22070;50.922;5.430;2023-03-01T03:12:51;11.77;;;7.55;;
36001;SDS011;22070;50.922;5.430;2023-03-01T03:15:20;13.30;;;7.20;;
36001;SDS011;22070;50.922;5.430;2023-03-01T03:17:47;14.43;;;7.35;;
36001;SDS011;22070;50.922;5.430;2023-03-01T03:20:16;12.80;;;7.07;;
36001;SDS011;22070;50.922;5.430;2023-03-01T03:22:48;13.27;;;7.90;;
36001;SDS011;22070;50.922;5.430;2023-03-01T03:25:18;11.50;;;7.30;;
36001;SDS011;22070;50.922;5.430;2023-03-01T03:27:46;12.27;;;7.63;;
36001;SDS011;22070;50.922;5.430;2023-03-01T03:30:14;14.60;;;8.20;;
36001;SDS011;22070;50.922;5.430;2023-03-01T03:32:43;13.07;;;7.63;;
36001;SDS011;22070;50.922;5.430;2023-03-01T03:35:17;11.88;;;7.70;;
36001;SDS011;22070;50.922;5.430;2023-03-01T03:38:04;13.48;;;7.88;;
36001;SDS011;22070;50.922;5.430;2023-03-01T03:43:05;12.73;;;7.72;;
36001;SDS011;22070;50.922;5.430;2023-03-01T03:45:32;14.75;;;8.05;;
36001;SDS011;22070;50.922;5.430;2023-03-01T03:47:58;13.83;;;7.90;;
36001;SDS011;22070;50.922;5.430;2023-03-01T03:52:50;14.83;;;7.57;;
36001;SDS011;22070;50.922;5.430;2023-03-01T03:55:16;11.63;;;7.78;;
36001;SDS011;22070;50.922;5.430;2023-03-01T03:57:44;12.90;;;7.88;;
36001;SDS011;22070;50.922;5.430;2023-03-01T04:00:19;14.13;;;7.72;;
36001;SDS011;22070;50.922;5.430;2023-03-01T04:02:47;12.60;;;8.07;;
36001;SDS011;22070;50.922;5.430;2023-03-01T04:05:14;16.30;;;8.55;;
36001;SDS011;22070;50.922;5.430;2023-03-01T04:07:41;14.30;;;7.68;;
36001;SDS011;22070;50.922;5.430;2023-03-01T04:10:09;11.90;;;7.55;;
36001;SDS011;22070;50.922;5.430;2023-03-01T04:12:36;15.02;;;8.27;;
36001;SDS011;22070;50.922;5.430;2023-03-01T04:15:02;16.27;;;7.77;;
36001;SDS011;22070;50.922;5.430;2023-03-01T04:17:44;13.33;;;7.70;;
36001;SDS011;22070;50.922;5.430;2023-03-01T04:20:15;16.13;;;8.00;;
36001;SDS011;22070;50.922;5.430;2023-03-01T04:22:43;12.50;;;7.90;;
36001;SDS011;22070;50.922;5.430;2023-03-01T04:25:12;15.77;;;8.23;;
36001;SDS011;22070;50.922;5.430;2023-03-01T04:27:39;12.35;;;8.07;;
36001;SDS011;22070;50.922;5.430;2023-03-01T04:30:06;15.43;;;8.87;;
36001;SDS011;22070;50.922;5.430;2023-03-01T04:32:32;12.30;;;7.93;;
36001;SDS011;22070;50.922;5.430;2023-03-01T04:34:58;11.93;;;7.60;;
36001;SDS011;22070;50.922;5.430;2023-03-01T04:37:24;13.02;;;8.27;;
36001;SDS011;22070;50.922;5.430;2023-03-01T04:39:50;13.97;;;8.17;;
36001;SDS011;22070;50.922;5.430;2023-03-01T04:42:17;14.60;;;8.10;;
36001;SDS011;22070;50.922;5.430;2023-03-01T04:44:43;17.60;;;7.95;;
36001;SDS011;22070;50.922;5.430;2023-03-01T04:47:09;16.70;;;8.88;;
36001;SDS011;22070;50.922;5.430;2023-03-01T04:49:35;18.17;;;8.55;;
36001;SDS011;22070;50.922;5.430;2023-03-01T04:52:01;16.90;;;8.83;;
36001;SDS011;22070;50.922;5.430;2023-03-01T04:54:30;13.82;;;8.05;;
36001;SDS011;22070;50.922;5.430;2023-03-01T04:56:57;17.60;;;9.43;;
36001;SDS011;22070;50.922;5.430;2023-03-01T04:59:23;15.32;;;9.32;;
36001;SDS011;22070;50.922;5.430;2023-03-01T05:01:53;12.93;;;8.43;;
36001;SDS011;22070;50.922;5.430;2023-03-01T05:04:23;16.27;;;8.57;;
36001;SDS011;22070;50.922;5.430;2023-03-01T05:06:49;14.38;;;8.48;;
36001;SDS011;22070;50.922;5.430;2023-03-01T05:09:15;17.17;;;9.00;;
36001;SDS011;22070;50.922;5.430;2023-03-01T05:11:40;16.95;;;9.30;;
36001;SDS011;22070;50.922;5.430;2023-03-01T05:14:07;16.50;;;8.73;;
36001;SDS011;22070;50.922;5.430;2023-03-01T05:16:33;16.35;;;8.73;;
36001;SDS011;22070;50.922;5.430;2023-03-01T05:19:01;16.73;;;9.13;;
36001;SDS011;22070;50.922;5.430;2023-03-01T05:21:36;20.05;;;8.73;;
36001;SDS011;22070;50.922;5.430;2023-03-01T05:26:48;15.95;;;8.25;;
36001;SDS011;22070;50.922;5.430;2023-03-01T05:29:16;15.35;;;8.93;;
36001;SDS011;22070;50.922;5.430;2023-03-01T05:31:44;17.42;;;9.60;;
36001;SDS011;22070;50.922;5.430;2023-03-01T05:34:09;15.60;;;9.07;;
36001;SDS011;22070;50.922;5.430;2023-03-01T05:36:37;16.38;;;9.07;;
36001;SDS011;22070;50.922;5.430;2023-03-01T05:39:03;11.37;;;7.07;;
36001;SDS011;22070;50.922;5.430;2023-03-01T05:41:29;12.40;;;8.23;;
36001;SDS011;22070;50.922;5.430;2023-03-01T05:43:55;18.75;;;8.80;;
36001;SDS011;22070;50.922;5.430;2023-03-01T05:46:20;15.03;;;9.07;;
36001;SDS011;22070;50.922;5.430;2023-03-01T05:48:48;20.92;;;8.98;;
36001;SDS011;22070;50.922;5.430;2023-03-01T05:51:14;18.60;;;8.60;;
36001;SDS011;22070;50.922;5.430;2023-03-01T05:53:39;11.27;;;6.22;;
36001;SDS011;22070;50.922;5.430;2023-03-01T05:56:05;16.13;;;8.70;;
36001;SDS011;22070;50.922;5.430;2023-03-01T05:58:31;14.97;;;8.97;;
36001;SDS011;22070;50.922;5.430;2023-03-01T06:00:56;14.20;;;8.30;;
36001;SDS011;22070;50.922;5.430;2023-03-01T06:03:22;15.87;;;9.30;;
36001;SDS011;22070;50.922;5.430;2023-03-01T06:05:48;14.52;;;8.55;;
36001;SDS011;22070;50.922;5.430;2023-03-01T06:08:13;19.23;;;9.10;;
36001;SDS011;22070;50.922;5.430;2023-03-01T06:10:39;16.70;;;8.67;;
36001;SDS011;22070;50.922;5.430;2023-03-01T06:13:05;18.63;;;9.40;;
36001;SDS011;22070;50.922;5.430;2023-03-01T06:15:31;15.90;;;9.17;;
36001;SDS011;22070;50.922;5.430;2023-03-01T06:17:56;16.47;;;9.63;;
36001;SDS011;22070;50.922;5.430;2023-03-01T06:20:23;19.60;;;10.00;;
36001;SDS011;22070;50.922;5.430;2023-03-01T06:22:51;14.80;;;8.75;;
36001;SDS011;22070;50.922;5.430;2023-03-01T06:25:18;16.33;;;8.27;;
36001;SDS011;22070;50.922;5.430;2023-03-01T06:27:46;18.10;;;9.05;;
36001;SDS011;22070;50.922;5.430;2023-03-01T06:30:14;14.65;;;8.82;;
36001;SDS011;22070;50.922;5.430;2023-03-01T06:32:41;15.07;;;8.82;;
36001;SDS011;22070;50.922;5.430;2023-03-01T06:35:07;16.73;;;9.03;;
36001;SDS011;22070;50.922;5.430;2023-03-01T06:37:37;15.57;;;8.43;;
36001;SDS011;22070;50.922;5.430;2023-03-01T06:40:04;14.57;;;8.60;;
36001;SDS011;22070;50.922;5.430;2023-03-01T06:42:37;14.32;;;8.95;;
36001;SDS011;22070;50.922;5.430;2023-03-01T06:45:05;20.00;;;8.65;;
36001;SDS011;22070;50.922;5.430;2023-03-01T06:49:58;19.73;;;9.57;;
36001;SDS011;22070;50.922;5.430;2023-03-01T06:52:27;14.52;;;9.07;;
36001;SDS011;22070;50.922;5.430;2023-03-01T06:54:54;17.30;;;9.15;;
36001;SDS011;22070;50.922;5.430;2023-03-01T06:57:20;22.03;;;9.60;;
36001;SDS011;22070;50.922;5.430;2023-03-01T06:59:46;17.17;;;9.43;;
36001;SDS011;22070;50.922;5.430;2023-03-01T07:02:12;20.08;;;9.75;;
36001;SDS011;22070;50.922;5.430;2023-03-01T07:04:40;22.48;;;9.68;;
36001;SDS011;22070;50.922;5.430;2023-03-01T07:07:05;21.20;;;10.07;;
36001;SDS011;22070;50.922;5.430;2023-03-01T07:09:31;18.73;;;9.47;;
36001;SDS011;22070;50.922;5.430;2023-03-01T07:11:57;15.93;;;9.00;;
36001;SDS011;22070;50.922;5.430;2023-03-01T07:14:23;16.73;;;9.18;;
36001;SDS011;22070;50.922;5.430;2023-03-01T07:16:54;21.38;;;9.73;;
36001;SDS011;22070;50.922;5.430;2023-03-01T07:19:20;17.85;;;9.38;;
36001;SDS011;22070;50.922;5.430;2023-03-01T07:21:46;19.77;;;10.07;;
36001;SDS011;22070;50.922;5.430;2023-03-01T07:24:12;18.38;;;10.38;;
36001;SDS011;22070;50.922;5.430;2023-03-01T07:26:38;17.57;;;9.90;;
36001;SDS011;22070;50.922;5.430;2023-03-01T07:29:04;19.20;;;9.80;;
36001;SDS011;22070;50.922;5.430;2023-03-01T07:31:31;18.95;;;10.57;;
36001;SDS011;22070;50.922;5.430;2023-03-01T07:33:57;21.47;;;9.57;;
36001;SDS011;22070;50.922;5.430;2023-03-01T07:36:23;18.63;;;9.73;;
36001;SDS011;22070;50.922;5.430;2023-03-01T07:38:49;17.98;;;10.23;;
36001;SDS011;22070;50.922;5.430;2023-03-01T07:41:16;18.17;;;9.88;;
36001;SDS011;22070;50.922;5.430;2023-03-01T07:43:41;18.58;;;10.23;;
36001;SDS011;22070;50.922;5.430;2023-03-01T07:46:09;18.83;;;9.82;;
36001;SDS011;22070;50.922;5.430;2023-03-01T07:48:35;18.70;;;10.05;;
36001;SDS011;22070;50.922;5.430;2023-03-01T07:51:01;16.90;;;10.98;;
36001;SDS011;22070;50.922;5.430;2023-03-01T07:53:29;17.10;;;9.73;;
36001;SDS011;22070;50.922;5.430;2023-03-01T07:56:03;16.05;;;9.52;;
36001;SDS011;22070;50.922;5.430;2023-03-01T07:58:30;17.23;;;9.95;;
36001;SDS011;22070;50.922;5.430;2023-03-01T08:00:57;18.90;;;9.65;;
36001;SDS011;22070;50.922;5.430;2023-03-01T08:05:59;17.85;;;9.43;;
36001;SDS011;22070;50.922;5.430;2023-03-01T08:10:51;16.57;;;6.83;;
36001;SDS011;22070;50.922;5.430;2023-03-01T08:13:17;18.13;;;9.75;;
36001;SDS011;22070;50.922;5.430;2023-03-01T08:15:48;17.05;;;9.68;;
36001;SDS011;22070;50.922;5.430;2023-03-01T08:18:14;20.52;;;9.77;;
36001;SDS011;22070;50.922;5.430;2023-03-01T08:20:44;15.00;;;9.32;;
36001;SDS011;22070;50.922;5.430;2023-03-01T08:23:09;15.93;;;9.82;;
36001;SDS011;22070;50.922;5.430;2023-03-01T08:25:35;17.30;;;9.27;;
36001;SDS011;22070;50.922;5.430;2023-03-01T08:28:01;20.17;;;10.13;;
36001;SDS011;22070;50.922;5.430;2023-03-01T08:30:27;18.67;;;9.43;;
36001;SDS011;22070;50.922;5.430;2023-03-01T08:32:53;13.02;;;6.53;;
36001;SDS011;22070;50.922;5.430;2023-03-01T08:35:19;15.70;;;8.93;;
36001;SDS011;22070;50.922;5.430;2023-03-01T08:37:45;19.85;;;10.05;;
36001;SDS011;22070;50.922;5.430;2023-03-01T08:40:11;15.77;;;9.40;;
36001;SDS011;22070;50.922;5.430;2023-03-01T08:42:38;16.42;;;9.27;;
36001;SDS011;22070;50.922;5.430;2023-03-01T08:45:05;16.27;;;9.95;;
36001;SDS011;22070;50.922;5.430;2023-03-01T08:52:24;21.25;;;9.30;;
36001;SDS011;22070;50.922;5.430;2023-03-01T08:54:51;23.40;;;10.05;;
36001;SDS011;22070;50.922;5.430;2023-03-01T08:57:17;15.43;;;9.10;;
36001;SDS011;22070;50.922;5.430;2023-03-01T08:59:42;18.25;;;9.80;;
36001;SDS011;22070;50.922;5.430;2023-03-01T09:02:10;12.40;;;7.03;;
36001;SDS011;22070;50.922;5.430;2023-03-01T09:04:38;16.42;;;9.23;;
36001;SDS011;22070;50.922;5.430;2023-03-01T09:07:04;17.27;;;9.83;;
36001;SDS011;22070;50.922;5.430;2023-03-01T09:09:30;24.87;;;10.03;;
36001;SDS011;22070;50.922;5.430;2023-03-01T09:11:55;21.90;;;9.03;;
36001;SDS011;22070;50.922;5.430;2023-03-01T09:14:21;15.07;;;9.10;;
36001;SDS011;22070;50.922;5.430;2023-03-01T09:16:47;16.92;;;8.88;;
36001;SDS011;22070;50.922;5.430;2023-03-01T09:19:13;16.80;;;9.82;;
36001;SDS011;22070;50.922;5.430;2023-03-01T09:21:39;19.13;;;9.38;;
36001;SDS011;22070;50.922;5.430;2023-03-01T09:24:05;17.30;;;9.23;;
36001;SDS011;22070;50.922;5.430;2023-03-01T09:26:31;15.65;;;9.63;;
36001;SDS011;22070;50.922;5.430;2023-03-01T09:28:57;19.03;;;9.57;;
36001;SDS011;22070;50.922;5.430;2023-03-01T09:31:23;22.08;;;9.35;;
36001;SDS011;22070;50.922;5.430;2023-03-01T09:33:50;16.40;;;9.25;;
36001;SDS011;22070;50.922;5.430;2023-03-01T09:36:18;17.95;;;8.95;;
36001;SDS011;22070;50.922;5.430;2023-03-01T09:38:46;16.38;;;9.32;;
36001;SDS011;22070;50.922;5.430;2023-03-01T09:44:03;19.25;;;10.02;;
36001;SDS011;22070;50.922;5.430;2023-03-01T09:46:42;17.73;;;8.75;;
36001;SDS011;22070;50.922;5.430;2023-03-01T09:54:55;16.60;;;9.40;;
36001;SDS011;22070;50.922;5.430;2023-03-01T10:02:27;18.60;;;9.48;;
36001;SDS011;22070;50.922;5.430;2023-03-01T10:08:02;18.58;;;9.07;;
36001;SDS011;22070;50.922;5.430;2023-03-01T10:10:33;17.20;;;9.55;;
36001;SDS011;22070;50.922;5.430;2023-03-01T10:13:00;18.95;;;10.27;;
36001;SDS011;22070;50.922;5.430;2023-03-01T10:15:43;15.85;;;8.98;;
36001;SDS011;22070;50.922;5.430;2023-03-01T10:18:15;17.35;;;9.05;;
36001;SDS011;22070;50.922;5.430;2023-03-01T10:23:17;21.92;;;9.95;;
36001;SDS011;22070;50.922;5.430;2023-03-01T10:28:29;18.02;;;10.05;;
36001;SDS011;22070;50.922;5.430;2023-03-01T10:31:09;16.92;;;10.20;;
36001;SDS011;22070;50.922;5.430;2023-03-01T10:33:38;16.60;;;10.23;;
36001;SDS011;22070;50.922;5.430;2023-03-01T10:36:07;18.15;;;10.00;;
36001;SDS011;22070;50.922;5.430;2023-03-01T10:41:19;18.50;;;10.03;;
36001;SDS011;22070;50.922;5.430;2023-03-01T10:43:50;17.02;;;9.35;;
36001;SDS011;22070;50.922;5.430;2023-03-01T10:46:28;20.17;;;9.98;;
36001;SDS011;22070;50.922;5.430;2023-03-01T10:49:20;22.02;;;10.15;;
36001;SDS011;22070;50.922;5.430;2023-03-01T10:51:51;15.87;;;8.03;;
36001;SDS011;22070;50.922;5.430;2023-03-01T10:56:48;18.25;;;9.02;;
36001;SDS011;22070;50.922;5.430;2023-03-01T10:59:24;16.95;;;10.15;;
36001;SDS011;22070;50.922;5.430;2023-03-01T11:05:13;19.58;;;9.35;;
36001;SDS011;22070;50.922;5.430;2023-03-01T11:10:15;17.08;;;9.85;;
36001;SDS011;22070;50.922;5.430;2023-03-01T11:12:43;17.02;;;9.75;;
36001;SDS011;22070;50.922;5.430;2023-03-01T11:15:15;23.75;;;10.50;;
36001;SDS011;22070;50.922;5.430;2023-03-01T11:17:50;19.52;;;10.32;;
36001;SDS011;22070;50.922;5.430;2023-03-01T11:20:27;18.92;;;10.68;;
36001;SDS011;22070;50.922;5.430;2023-03-01T11:23:10;18.42;;;10.25;;
36001;SDS011;22070;50.922;5.430;2023-03-01T11:25:42;20.75;;;9.65;;
36001;SDS011;22070;50.922;5.430;2023-03-01T11:28:14;28.77;;;10.45;;
36001;SDS011;22070;50.922;5.430;2023-03-01T11:36:05;17.83;;;9.60;;
36001;SDS011;22070;50.922;5.430;2023-03-01T11:38:53;20.00;;;10.00;;
36001;SDS011;22070;50.922;5.430;2023-03-01T11:41:20;17.38;;;10.05;;
36001;SDS011;22070;50.922;5.430;2023-03-01T11:44:10;14.45;;;9.45;;
36001;SDS011;22070;50.922;5.430;2023-03-01T12:16:23;16.33;;;8.95;;
36001;SDS011;22070;50.922;5.430;2023-03-01T12:19:13;17.48;;;9.57;;
36001;SDS011;22070;50.922;5.430;2023-03-01T12:30:31;16.90;;;8.80;;
36001;SDS011;22070;50.922;5.430;2023-03-01T12:35:40;16.98;;;9.02;;
36001;SDS011;22070;50.922;5.430;2023-03-01T12:44:01;21.98;;;10.05;;
36001;SDS011;22070;50.922;5.430;2023-03-01T12:49:57;17.95;;;9.70;;
36001;SDS011;22070;50.922;5.430;2023-03-01T12:55:02;15.43;;;9.10;;
36001;SDS011;22070;50.922;5.430;2023-03-01T12:57:47;13.77;;;8.20;;
36001;SDS011;22070;50.922;5.430;2023-03-01T13:00:53;17.00;;;8.65;;
36001;SDS011;22070;50.922;5.430;2023-03-01T13:03:38;15.43;;;9.13;;
36001;SDS011;22070;50.922;5.430;2023-03-01T13:06:35;15.70;;;9.00;;
36001;SDS011;22070;50.922;5.430;2023-03-01T13:11:43;14.05;;;8.52;;
36001;SDS011;22070;50.922;5.430;2023-03-01T13:16:50;13.73;;;8.02;;
36001;SDS011;22070;50.922;5.430;2023-03-01T13:19:23;16.85;;;8.57;;
36001;SDS011;22070;50.922;5.430;2023-03-01T13:21:52;13.45;;;8.63;;
36001;SDS011;22070;50.922;5.430;2023-03-01T13:25:02;15.00;;;8.43;;
36001;SDS011;22070;50.922;5.430;2023-03-01T13:27:26;16.33;;;8.77;;
36001;SDS011;22070;50.922;5.430;2023-03-01T13:29:57;13.45;;;8.40;;
36001;SDS011;22070;50.922;5.430;2023-03-01T13:32:35;17.65;;;8.10;;
36001;SDS011;22070;50.922;5.430;2023-03-01T13:37:39;12.95;;;7.97;;
36001;SDS011;22070;50.922;5.430;2023-03-01T13:42:54;13.38;;;8.35;;
36001;SDS011;22070;50.922;5.430;2023-03-01T13:45:21;13.73;;;8.05;;
36001;SDS011;22070;50.922;5.430;2023-03-01T13:48:09;12.80;;;8.10;;
36001;SDS011;22070;50.922;5.430;2023-03-01T13:50:45;14.48;;;7.82;;
36001;SDS011;22070;50.922;5.430;2023-03-01T13:53:19;14.25;;;8.00;;
36001;SDS011;22070;50.922;5.430;2023-03-01T13:55:57;11.85;;;7.65;;
36001;SDS011;22070;50.922;5.430;2023-03-01T13:58:32;18.17;;;9.30;;
36001;SDS011;22070;50.922;5.430;2023-03-01T14:01:18;12.77;;;7.65;;
36001;SDS011;22070;50.922;5.430;2023-03-01T14:03:49;14.93;;;8.60;;
36001;SDS011;22070;50.922;5.430;2023-03-01T14:06:16;14.35;;;8.65;;
36001;SDS011;22070;50.922;5.430;2023-03-01T14:08:48;14.65;;;8.48;;
36001;SDS011;22070;50.922;5.430;2023-03-01T14:19:24;13.77;;;7.45;;
36001;SDS011;22070;50.922;5.430;2023-03-01T14:24:38;14.13;;;7.68;;
36001;SDS011;22070;50.922;5.430;2023-03-01T14:27:12;12.88;;;7.47;;
36001;SDS011;22070;50.922;5.430;2023-03-01T14:29:39;13.70;;;8.10;;
36001;SDS011;22070;50.922;5.430;2023-03-01T14:32:38;11.98;;;7.28;;
36001;SDS011;22070;50.922;5.430;2023-03-01T14:34:58;13.48;;;8.55;;
36001;SDS011;22070;50.922;5.430;2023-03-01T14:39:54;13.40;;;8.05;;
36001;SDS011;22070;50.922;5.430;2023-03-01T14:42:22;13.55;;;7.53;;
36001;SDS011;22070;50.922;5.430;2023-03-01T14:44:52;11.32;;;7.63;;
36001;SDS011;22070;50.922;5.430;2023-03-01T14:47:33;17.23;;;7.15;;
36001;SDS011;22070;50.922;5.430;2023-03-01T14:50:08;13.80;;;6.47;;
36001;SDS011;22070;50.922;5.430;2023-03-01T14:52:47;11.05;;;6.50;;
36001;SDS011;22070;50.922;5.430;2023-03-01T14:55:24;19.17;;;8.57;;
36001;SDS011;22070;50.922;5.430;2023-03-01T14:57:55;13.25;;;6.88;;
36001;SDS011;22070;50.922;5.430;2023-03-01T15:00:23;11.73;;;7.32;;
36001;SDS011;22070;50.922;5.430;2023-03-01T15:02:52;10.38;;;6.57;;
36001;SDS011;22070;50.922;5.430;2023-03-01T15:05:23;12.65;;;6.88;;
36001;SDS011;22070;50.922;5.430;2023-03-01T15:07:52;14.82;;;7.05;;
36001;SDS011;22070;50.922;5.430;2023-03-01T15:10:20;15.20;;;6.85;;
36001;SDS011;22070;50.922;5.430;2023-03-01T15:12:50;16.42;;;7.15;;
36001;SDS011;22070;50.922;5.430;2023-03-01T15:17:55;12.52;;;7.10;;
36001;SDS011;22070;50.922;5.430;2023-03-01T15:20:23;11.57;;;5.75;;
36001;SDS011;22070;50.922;5.430;2023-03-01T15:22:53;16.60;;;6.90;;
36001;SDS011;22070;50.922;5.430;2023-03-01T15:25:21;11.60;;;6.20;;
36001;SDS011;22070;50.922;5.430;2023-03-01T15:27:49;12.63;;;6.68;;
36001;SDS011;22070;50.922;5.430;2023-03-01T15:30:23;10.27;;;6.18;;
36001;SDS011;22070;50.922;5.430;2023-03-01T15:35:58;10.55;;;5.97;;
36001;SDS011;22070;50.922;5.430;2023-03-01T15:38:32;13.80;;;6.35;;
36001;SDS011;22070;50.922;5.430;2023-03-01T15:41:25;10.35;;;5.90;;
36001;SDS011;22070;50.922;5.430;2023-03-01T15:43:53;11.82;;;6.10;;
36001;SDS011;22070;50.922;5.430;2023-03-01T15:46:30;10.05;;;6.50;;
36001;SDS011;22070;50.922;5.430;2023-03-01T15:49:00;20.60;;;7.25;;
36001;SDS011;22070;50.922;5.430;2023-03-01T15:51:32;13.00;;;6.22;;
36001;SDS011;22070;50.922;5.430;2023-03-01T15:54:01;11.18;;;6.15;;
36001;SDS011;22070;50.922;5.430;2023-03-01T15:56:32;12.75;;;6.10;;
36001;SDS011;22070;50.922;5.430;2023-03-01T15:58:59;12.03;;;6.30;;
36001;SDS011;22070;50.922;5.430;2023-03-01T16:01:26;17.38;;;5.70;;
36001;SDS011;22070;50.922;5.430;2023-03-01T16:03:52;11.82;;;5.60;;
36001;SDS011;22070;50.922;5.430;2023-03-01T16:06:18;12.75;;;5.68;;
36001;SDS011;22070;50.922;5.430;2023-03-01T16:08:44;10.32;;;5.60;;
36001;SDS011;22070;50.922;5.430;2023-03-01T16:11:14;11.70;;;4.72;;
36001;SDS011;22070;50.922;5.430;2023-03-01T16:13:43;7.80;;;5.28;;
36001;SDS011;22070;50.922;5.430;2023-03-01T16:16:12;9.73;;;5.70;;
36001;SDS011;22070;50.922;5.430;2023-03-01T16:18:44;8.30;;;5.22;;
36001;SDS011;22070;50.922;5.430;2023-03-01T16:21:12;8.15;;;5.30;;
36001;SDS011;22070;50.922;5.430;2023-03-01T16:23:45;8.02;;;5.50;;
36001;SDS011;22070;50.922;5.430;2023-03-01T16:26:11;11.68;;;5.70;;
36001;SDS011;22070;50.922;5.430;2023-03-01T16:28:38;10.95;;;5.97;;
36001;SDS011;22070;50.922;5.430;2023-03-01T16:31:04;8.80;;;5.78;;
36001;SDS011;22070;50.922;5.430;2023-03-01T16:33:30;13.63;;;4.93;;
36001;SDS011;22070;50.922;5.430;2023-03-01T16:35:57;8.52;;;4.18;;
36001;SDS011;22070;50.922;5.430;2023-03-01T16:38:24;7.40;;;5.15;;
36001;SDS011;22070;50.922;5.430;2023-03-01T16:40:51;10.25;;;5.38;;
36001;SDS011;22070;50.922;5.430;2023-03-01T16:43:17;12.50;;;5.72;;
36001;SDS011;22070;50.922;5.430;2023-03-01T16:45:43;15.38;;;9.88;;
36001;SDS011;22070;50.922;5.430;2023-03-01T16:48:10;8.50;;;5.35;;
36001;SDS011;22070;50.922;5.430;2023-03-01T16:50:36;12.43;;;6.40;;
36001;SDS011;22070;50.922;5.430;2023-03-01T16:53:01;7.90;;;5.40;;
36001;SDS011;22070;50.922;5.430;2023-03-01T16:55:27;10.43;;;5.60;;
36001;SDS011;22070;50.922;5.430;2023-03-01T16:57:53;13.52;;;6.18;;
36001;SDS011;22070;50.922;5.430;2023-03-01T17:00:19;13.35;;;6.60;;
36001;SDS011;22070;50.922;5.430;2023-03-01T17:02:45;14.20;;;6.35;;
36001;SDS011;22070;50.922;5.430;2023-03-01T17:05:11;9.00;;;5.75;;
36001;SDS011;22070;50.922;5.430;2023-03-01T17:07:37;11.15;;;5.95;;
36001;SDS011;22070;50.922;5.430;2023-03-01T17:10:04;14.38;;;6.50;;
36001;SDS011;22070;50.922;5.430;2023-03-01T17:12:33;23.17;;;6.63;;
36001;SDS011;22070;50.922;5.430;2023-03-01T17:14:59;13.18;;;6.85;;